Airfield :
LOGIN :

Register | Disclaimer

   EN    FR    IT 

 










Legend :    VFR   Marginal VFR   IFR   Intensive IFR   Very Intensive IFR
Visi :
Ceiling :
>= 8 km
>= 3000ft
5 to 8 km
1000 to 3000 ft
1500m to 5 km
500 to 1000 ft
800 to 1500m
200 to 500 ft
< 800m
< 200 ft
Symbols :   Thunderstorms  Fog  Heavy snow  Heavy precipitations  Wind > 20 kt
SIGMETs :     Misc.  Thunderstorms  Icing  Turbulence  Mountain Waves  Volcanic Ashes






- Airport Elevation : 121 ft
- IATA code : HUY


EGNJ - Humberside

CURRENT METAR :
  • 090450Z 17016KT 9999 -RA FEW013 SCT021 13/12 Q0994 RERA

EXPIRED METARs :
  • 090420Z AUTO 18013KT 9999 BKN015/// OVC019/// 13/12 Q0994 RERA
  • 090350Z AUTO 19014KT 9999 -RA SCT008/// BKN012/// OVC022/// 13/13 Q0994 RERA
  • 090320Z AUTO 19015KT 9999 RA OVC016/// 14/12 Q0994
  • 090250Z AUTO 19014KT 9999 BKN018/// OVC023/// 14/12 Q0994
  • 090220Z AUTO 19014KT 9999 -RA SCT017/// SCT025/// BKN035/// 14/12 Q0994 RERA

TAF TAF EGNJ
Valid from the 09 at 03:00 until the 09 at 12:00 UTC


090155Z 0903/0912 20012KT 9999 BKN025
TEMPO 0903/0909 -RA BKN010
PROB30
TEMPO 0903/0909 6000 RADZ BKN008
ATIS : +44 1652 682 020



MET'MAP, your aeronautical weather chart ! - Copyright ORBIFLY December 2007 - Disclaimer

ORBIFLY MET'MAP TEAM :

Programming & Development : Alexandra Zaïnal
Concept & original design : Baudouin d'Aumeries
Assistance for programming : Marc-Olivier Méhu
Technical & hardware support : Manuel Goepfert

Contact : metmap@orbifly.com




SOURCES & CREDITS :

   NOAA